Time;durP1;ratioP1;P1;durP2;ratioP2;P2;SDS_P1;SDS_P2;PMS_P1;PMS_P2;Temp;Humidity;BMP_temperature;BMP_pressure;BME280_temperature;BME280_humidity;BME280_pressure;Samples;Min_cycle;Max_cycle;Signal;HPM_P1;HPM_P2
2021/06/26 00:01:58;;;;;;;10.58;9.50;;;;;;;20.07;73.31;100277.94;1765758;79;25727;-64
2021/06/26 00:04:25;;;;;;;13.90;9.15;;;;;;;20.03;73.22;100273.78;1765803;79;27327;-64
2021/06/26 00:06:51;;;;;;;12.70;10.48;;;;;;;20.00;73.36;100266.88;1754610;79;25952;-63
2021/06/26 00:09:18;;;;;;;11.65;8.68;;;;;;;19.98;73.55;100256.86;1743402;79;26772;-65
2021/06/26 00:11:45;;;;;;;10.80;9.63;;;;;;;19.96;73.52;100265.47;1697629;81;26487;-69
2021/06/26 00:14:12;;;;;;;13.90;9.65;;;;;;;19.94;73.83;100263.09;1750026;79;25866;-67
2021/06/26 00:16:39;;;;;;;14.18;10.10;;;;;;;19.91;73.98;100263.05;1770377;78;27361;-67
2021/06/26 00:19:06;;;;;;;10.70;9.60;;;;;;;19.88;74.12;100259.67;1750077;80;25880;-68
2021/06/26 00:21:33;;;;;;;10.40;9.33;;;;;;;19.87;74.29;100259.45;1756987;79;25811;-66
2021/06/26 00:24:00;;;;;;;12.55;9.58;;;;;;;19.87;74.44;100263.01;1734868;80;25986;-63
2021/06/26 00:26:28;;;;;;;11.22;10.13;;;;;;;19.87;74.64;100259.45;1741084;79;25936;-64
2021/06/26 00:28:55;;;;;;;12.73;9.63;;;;;;;19.86;74.84;100260.63;1718097;81;27324;-65
2021/06/26 00:31:22;;;;;;;10.25;8.93;;;;;;;19.84;75.11;100271.98;1776412;78;25838;-63
2021/06/26 00:33:51;;;;;;;9.15;8.00;;;;;;;19.83;75.10;100277.25;1721849;80;25821;-63
2021/06/26 00:36:19;;;;;;;9.40;8.48;;;;;;;19.83;75.35;100288.82;1757197;79;26245;-64
2021/06/26 00:38:49;;;;;;;10.85;9.45;;;;;;;19.82;75.46;100289.97;1758627;79;25709;-71
2021/06/26 00:41:15;;;;;;;10.18;8.48;;;;;;;19.81;75.76;100294.67;1713408;80;28700;-72
2021/06/26 00:43:42;;;;;;;8.90;8.00;;;;;;;19.80;75.91;100295.83;1704871;81;26401;-69
2021/06/26 06:01:50;;;;;;;6.03;4.42;;;;;;;23.01;68.88;100389.33;1757170;75;68326;-71
2021/06/26 06:04:17;;;;;;;7.37;5.05;;;;;;;23.20;68.00;100392.33;1717420;81;25772;-72
2021/06/26 06:06:43;;;;;;;5.95;5.05;;;;;;;23.38;67.70;100404.77;1729072;81;27356;-73
2021/06/26 06:09:10;;;;;;;5.47;4.58;;;;;;;23.46;66.62;100401.41;1737033;81;25850;-71
2021/06/26 06:11:38;;;;;;;6.03;4.72;;;;;;;23.52;66.72;100410.11;1763714;78;25847;-71
2021/06/26 06:14:04;;;;;;;7.47;5.10;;;;;;;23.54;66.34;100412.66;1772542;78;27718;-72
2021/06/26 06:16:31;;;;;;;7.37;4.95;;;;;;;23.59;66.24;100408.72;1754128;78;25905;-71
2021/06/26 06:19:01;;;;;;;7.72;5.08;;;;;;;23.61;65.75;100414.02;1777334;78;27321;-72
2021/06/26 06:21:27;;;;;;;;;;;;;;;23.64;65.46;100408.31;1777009;78;25712;-71
2021/06/26 06:23:53;;;;;;;5.47;4.97;;;;;;;23.64;64.90;100413.23;1715769;81;25840;-71
2021/06/26 06:26:20;;;;;;;12.25;5.25;;;;;;;23.66;65.05;100408.70;1744267;80;26092;-71
2021/06/26 06:28:46;;;;;;;8.15;5.33;;;;;;;23.72;65.17;100402.19;1757563;80;26234;-71
2021/06/26 06:31:13;;;;;;;6.10;4.92;;;;;;;23.84;65.30;100399.06;1756705;80;27288;-71
2021/06/26 06:33:40;;;;;;;5.08;4.50;;;;;;;23.99;64.91;100399.23;1729389;79;26060;-74
2021/06/26 06:36:08;;;;;;;4.78;4.30;;;;;;;24.12;64.81;100408.47;1722347;81;25947;-73
2021/06/26 06:38:36;;;;;;;7.53;4.75;;;;;;;24.27;64.16;100411.38;1677320;82;26396;-70
2021/06/26 06:41:07;;;;;;;5.97;4.87;;;;;;;24.38;63.56;100412.14;1764666;79;25826;-72
2021/06/26 06:43:33;;;;;;;10.43;5.28;;;;;;;24.52;63.15;100408.52;1762892;78;27318;-70
2021/06/26 06:46:03;;;;;;;6.17;4.20;;;;;;;24.72;63.00;100410.81;1777529;78;25827;-67
2021/06/26 06:48:28;;;;;;;7.95;4.58;;;;;;;24.86;62.54;100409.95;1789799;78;25782;-66
2021/06/26 06:50:54;;;;;;;8.00;4.40;;;;;;;25.05;62.34;100414.98;1749414;80;27920;-66
2021/06/26 06:53:21;;;;;;;6.92;4.80;;;;;;;25.32;62.12;100417.20;1766458;78;25777;-65
2021/06/26 06:55:51;;;;;;;6.85;4.30;;;;;;;25.57;61.47;100421.74;1772852;79;27448;-66
2021/06/26 06:58:20;;;;;;;6.80;4.70;;;;;;;25.74;60.82;100424.95;1767374;78;25737;-66
2021/06/26 07:00:48;;;;;;;7.53;4.42;;;;;;;25.88;59.76;100426.79;1779959;78;25756;-66
2021/06/26 07:03:14;;;;;;;4.80;4.05;;;;;;;25.97;59.57;100429.91;1786019;78;26527;-66
2021/06/26 07:05:40;;;;;;;5.62;4.78;;;;;;;26.06;59.17;100423.27;1773869;78;26453;-66
2021/06/26 07:08:07;;;;;;;4.50;4.10;;;;;;;26.11;58.93;100420.66;1769118;79;27976;-66
2021/06/26 07:10:34;;;;;;;5.62;4.53;;;;;;;26.21;58.60;100419.75;1761442;78;25781;-67
2021/06/26 07:13:01;;;;;;;6.08;4.45;;;;;;;26.36;58.14;100416.22;1777943;78;25481;-67
2021/06/26 07:15:27;;;;;;;8.18;4.70;;;;;;;26.57;58.01;100418.54;1749977;79;26367;-66
2021/06/26 07:17:54;;;;;;;7.08;4.08;;;;;;;26.83;57.91;100421.98;1741866;80;26542;-67
2021/06/26 07:20:20;;;;;;;6.42;4.65;;;;;;;27.11;57.14;100413.67;1766006;78;27291;-67
2021/06/26 07:22:47;;;;;;;7.85;4.58;;;;;;;27.41;57.30;100414.19;1760059;79;27166;-67
2021/06/26 07:25:13;;;;;;;5.67;4.30;;;;;;;27.67;56.50;100415.36;1769661;79;26434;-66
2021/06/26 07:27:40;;;;;;;9.10;4.72;;;;;;;27.78;55.56;100417.94;1742115;80;26149;-67
2021/06/26 07:30:08;;;;;;;9.28;4.28;;;;;;;27.83;54.30;100416.05;1764041;78;25705;-67
2021/06/26 07:32:34;;;;;;;6.05;3.90;;;;;;;27.90;53.87;100419.31;1769387;79;27325;-67
2021/06/26 07:35:00;;;;;;;7.15;3.58;;;;;;;27.94;53.61;100422.24;1778263;78;25871;-67
2021/06/26 07:37:27;;;;;;;6.90;4.00;;;;;;;28.05;53.01;100424.03;1772858;79;26517;-68
2021/06/26 07:39:53;;;;;;;5.30;3.83;;;;;;;28.11;52.82;100423.70;1739198;81;25841;-67
2021/06/26 07:42:19;;;;;;;4.80;3.50;;;;;;;28.28;52.63;100413.44;1727633;81;25744;-73
2021/06/26 07:44:46;;;;;;;5.03;3.62;;;;;;;28.51;52.06;100410.58;1760880;78;27311;-73
2021/06/26 07:47:12;;;;;;;4.70;3.83;;;;;;;28.69;51.28;100399.72;1767361;79;25736;-76
2021/06/26 07:49:38;;;;;;;10.15;8.68;;;;;;;28.73;50.42;100404.59;1771126;78;25818;-75
2021/06/26 07:52:06;;;;;;;7.65;4.08;;;;;;;28.85;50.58;100414.27;1749527;80;26068;-68
2021/06/26 07:54:32;;;;;;;6.45;3.80;;;;;;;28.93;49.75;100403.16;1665068;82;25497;-67
2021/06/26 07:56:59;;;;;;;4.28;3.87;;;;;;;29.04;49.45;100406.45;1774411;78;27379;-67
2021/06/26 07:59:25;;;;;;;5.28;3.27;;;;;;;29.09;48.46;100402.38;1737679;81;25919;-67
2021/06/26 08:01:52;;;;;;;5.28;3.85;;;;;;;29.07;48.32;100397.85;1767049;78;26921;-67
2021/06/26 08:04:19;;;;;;;4.85;3.85;;;;;;;29.00;48.03;100395.24;1777070;78;26442;-68
2021/06/26 08:06:46;;;;;;;5.22;3.37;;;;;;;28.99;47.90;100398.62;1722587;81;25786;-69
2021/06/26 08:09:12;;;;;;;7.55;3.98;;;;;;;28.94;47.36;100399.13;1726785;81;27331;-69
2021/06/26 08:11:39;;;;;;;4.83;3.70;;;;;;;28.87;47.22;100393.73;1717500;80;25978;-69
2021/06/26 08:14:05;;;;;;;6.50;5.28;;;;;;;28.87;47.69;100395.91;1693023;82;26215;-69
2021/06/26 08:16:31;;;;;;;6.15;4.60;;;;;;;28.96;47.92;100395.92;1717401;81;26689;-70
2021/06/26 08:18:58;;;;;;;4.55;3.45;;;;;;;29.15;47.60;100398.45;1729687;81;25910;-66
2021/06/26 08:21:25;;;;;;;4.42;3.30;;;;;;;29.22;47.50;100403.91;1773828;78;27248;-69
2021/06/26 08:23:53;;;;;;;7.85;3.33;;;;;;;29.33;47.00;100398.83;1784899;78;25689;-70
2021/06/26 08:26:19;;;;;;;5.47;3.30;;;;;;;29.31;46.67;100408.86;1779057;78;26089;-70
2021/06/26 08:28:46;;;;;;;5.45;3.50;;;;;;;29.33;46.61;100410.59;1768694;79;26393;-67
2021/06/26 08:31:12;;;;;;;3.25;2.95;;;;;;;29.39;46.36;100411.03;1781241;78;25759;-69
2021/06/26 08:33:39;;;;;;;4.08;2.95;;;;;;;29.62;46.01;100410.03;1727033;81;27472;-71
2021/06/26 08:36:08;;;;;;;3.77;2.58;;;;;;;29.91;45.59;100408.53;1768718;78;25720;-74
2021/06/26 08:38:36;;;;;;;3.92;3.60;;;;;;;30.23;45.38;100406.87;1766723;78;25854;-70
2021/06/26 08:41:03;;;;;;;5.00;3.20;;;;;;;30.61;44.89;100407.58;1732868;80;26237;-70
2021/06/26 08:43:30;;;;;;;3.62;2.90;;;;;;;30.89;44.50;100400.34;1735120;79;26521;-69
2021/06/26 08:46:00;;;;;;;3.42;3.10;;;;;;;31.02;43.54;100396.16;1770165;79;27359;-69
2021/06/26 08:48:28;;;;;;;4.08;3.25;;;;;;;31.18;43.66;100398.84;1772086;78;26047;-70
2021/06/26 08:50:55;;;;;;;6.23;3.50;;;;;;;31.34;43.23;100401.33;1773741;78;26495;-68
2021/06/26 08:53:22;;;;;;;4.28;3.12;;;;;;;31.26;42.51;100406.36;1748190;80;25867;-67
2021/06/26 08:55:52;;;;;;;6.15;3.70;;;;;;;31.15;42.03;100403.14;1770383;78;25859;-67
2021/06/26 08:58:16;;;;;;;3.70;3.15;;;;;;;31.08;42.05;100406.33;1766863;78;27964;-67
2021/06/26 09:00:43;;;;;;;4.20;3.65;;;;;;;31.04;41.64;100409.06;1771203;78;26107;-66
2021/06/26 09:03:12;;;;;;;7.28;3.33;;;;;;;31.01;41.86;100405.16;1769882;78;26417;-65
2021/06/26 09:05:41;;;;;;;5.30;3.30;;;;;;;30.94;41.41;100399.81;1770794;78;25980;-65
2021/06/26 09:08:11;;;;;;;7.70;3.25;;;;;;;30.72;41.21;100404.62;1766866;78;25887;-65
2021/06/26 09:10:39;;;;;;;5.37;4.00;;;;;;;30.38;41.07;100397.48;1770443;78;27375;-66
2021/06/26 09:13:28;;;;;;;6.22;3.67;;;;;;;30.09;41.39;100397.67;1765476;78;26277;-65
2021/06/26 09:16:06;;;;;;;;;;;;;;;29.94;42.00;100394.49;1783128;78;26611;-65
2021/06/26 09:18:48;;;;;;;3.87;3.58;;;;;;;30.04;42.41;100401.62;1772493;79;26698;-66
2021/06/26 09:21:32;;;;;;;6.62;4.10;;;;;;;30.20;42.70;100398.75;1786302;78;25474;-67
2021/06/26 09:24:11;;;;;;;4.92;4.28;;;;;;;30.62;42.98;100391.78;1781667;78;27348;-68
2021/06/26 09:26:45;;;;;;;4.90;3.72;;;;;;;30.90;42.27;100394.31;1767397;79;25868;-66
2021/06/26 09:29:17;;;;;;;4.70;3.65;;;;;;;30.79;41.36;100393.09;1763363;78;26122;-61
2021/06/26 09:31:55;;;;;;;4.25;3.55;;;;;;;30.60;41.04;100396.23;1762965;78;26415;-60
2021/06/26 09:34:25;;;;;;;4.42;3.47;;;;;;;30.64;41.93;100376.77;1756006;80;26545;-63
2021/06/26 09:37:02;;;;;;;5.87;4.55;;;;;;;30.92;41.27;100382.67;1733870;80;27436;-61
2021/06/26 09:39:43;;;;;;;4.28;3.30;;;;;;;31.06;41.43;100373.88;1733914;80;25967;-61
2021/06/26 09:42:23;;;;;;;3.67;2.92;;;;;;;31.31;40.49;100372.88;1763285;78;25873;-61
2021/06/26 09:45:14;;;;;;;3.87;3.52;;;;;;;31.43;39.91;100377.65;1766133;79;27890;-62
2021/06/26 09:47:44;;;;;;;4.22;3.00;;;;;;;31.23;39.56;100375.92;1768365;78;25601;-61
2021/06/26 09:50:24;;;;;;;6.75;3.95;;;;;;;31.42;40.22;100378.27;1744123;80;28492;-61
2021/06/26 09:53:03;;;;;;;3.50;2.98;;;;;;;31.80;39.84;100375.98;1719327;81;25771;-62
2021/06/26 09:55:39;;;;;;;6.35;3.10;;;;;;;32.02;39.00;100380.19;1771709;79;25726;-62
2021/06/26 09:58:15;;;;;;;5.90;3.58;;;;;;;32.26;38.65;100381.14;1745933;79;26594;-62
2021/06/26 10:00:43;;;;;;;4.33;3.05;;;;;;;32.62;38.77;100368.60;1780486;78;26321;-62
2021/06/26 10:03:12;;;;;;;6.97;3.17;;;;;;;32.92;38.10;100366.23;1773875;78;27898;-63
2021/06/26 10:05:39;;;;;;;3.98;2.67;;;;;;;33.16;37.40;100369.91;1750393;78;25931;-62
2021/06/26 10:08:07;;;;;;;4.30;2.42;;;;;;;33.28;37.33;100372.56;1769538;78;26262;-63
2021/06/26 10:10:33;;;;;;;4.35;3.27;;;;;;;33.54;36.55;100370.09;1776396;79;26244;-63
2021/06/26 10:13:00;;;;;;;3.02;2.75;;;;;;;33.66;36.66;100369.16;1773892;78;26340;-62
2021/06/26 10:15:34;;;;;;;4.05;2.65;;;;;;;33.85;35.74;100374.96;1766081;79;27011;-63
2021/06/26 10:17:59;;;;;;;2.72;2.50;;;;;;;34.00;35.27;100378.52;1758763;79;26117;-67
2021/06/26 10:20:27;;;;;;;2.52;2.20;;;;;;;34.01;35.16;100375.87;1775307;78;26471;-66
2021/06/26 10:23:00;;;;;;;5.62;2.77;;;;;;;33.95;35.64;100380.55;1760106;79;25767;-66
2021/06/26 10:25:37;;;;;;;3.52;2.62;;;;;;;33.91;35.26;100370.89;1772896;78;26161;-66
2021/06/26 10:28:08;;;;;;;5.45;2.90;;;;;;;33.82;35.76;100371.69;1762065;78;27322;-66
2021/06/26 10:30:36;;;;;;;3.22;2.33;;;;;;;33.79;35.53;100370.45;1760857;78;26192;-67
2021/06/26 10:33:08;;;;;;;3.45;3.25;;;;;;;33.55;35.17;100378.68;1775490;79;25998;-66
2021/06/26 10:35:39;;;;;;;3.98;2.92;;;;;;;32.95;34.99;100380.09;1761159;78;25770;-67
2021/06/26 10:38:14;;;;;;;5.53;3.17;;;;;;;32.35;35.57;100375.62;1735877;80;25829;-66
2021/06/26 10:40:51;;;;;;;6.75;3.37;;;;;;;32.12;36.45;100375.47;1773092;78;27398;-66
2021/06/26 10:43:28;;;;;;;7.58;3.02;;;;;;;31.96;37.23;100379.23;1776448;78;25794;-66
2021/06/26 10:46:13;;;;;;;4.15;3.12;;;;;;;32.02;37.28;100382.98;1782105;78;26021;-65
2021/06/26 10:48:44;;;;;;;3.10;2.80;;;;;;;31.90;36.87;100378.23;1739440;80;26583;-65
2021/06/26 10:51:11;;;;;;;6.10;3.30;;;;;;;31.97;36.82;100380.77;1749136;80;25750;-65
2021/06/26 10:53:41;;;;;;;3.00;2.70;;;;;;;32.18;37.17;100382.64;1753739;80;28061;-65
2021/06/26 10:56:14;;;;;;;3.10;2.80;;;;;;;32.22;36.39;100378.34;1750587;80;25849;-65
2021/06/26 10:58:44;;;;;;;3.40;2.80;;;;;;;32.33;36.28;100369.67;1745318;79;25911;-65
2021/06/26 11:01:21;;;;;;;5.17;3.20;;;;;;;32.33;36.68;100369.67;1742163;80;26212;-66
2021/06/26 11:04:11;;;;;;;5.85;3.50;;;;;;;32.47;37.11;100364.77;1751071;80;26161;-63
2021/06/26 11:06:39;;;;;;;4.72;3.22;;;;;;;32.66;37.22;100356.66;1725119;79;27307;-63
2021/06/26 11:09:12;;;;;;;3.70;3.40;;;;;;;32.95;37.06;100370.29;1743977;80;26318;-65
2021/06/26 11:11:49;;;;;;;4.15;3.75;;;;;;;33.10;36.92;100364.89;1751784;80;25750;-65
2021/06/26 11:14:24;;;;;;;5.17;3.40;;;;;;;33.21;35.91;100362.29;1717715;81;26348;-63
2021/06/26 11:16:56;;;;;;;3.33;3.02;;;;;;;33.38;36.28;100369.16;1754702;79;26337;-64
2021/06/26 11:19:32;;;;;;;4.87;3.12;;;;;;;33.51;36.19;100373.23;1756739;78;27094;-62
2021/06/26 11:22:02;;;;;;;2.60;2.40;;;;;;;33.61;35.55;100370.58;1769166;78;25851;-69
2021/06/26 11:24:37;;;;;;;3.33;3.02;;;;;;;33.57;35.11;100369.94;1748335;79;26476;-69
2021/06/26 11:27:05;;;;;;;3.58;2.90;;;;;;;33.57;35.11;100369.94;1763094;78;25762;-69
2021/06/26 11:29:37;;;;;;;;;;;;;;;33.79;35.53;100371.22;1754402;79;25451;-71
2021/06/26 11:32:23;;;;;;;5.30;3.35;;;;;;;33.99;34.70;100372.14;1776241;79;27306;-68
2021/06/26 11:35:03;;;;;;;5.05;3.65;;;;;;;33.99;34.35;100397.38;1756069;78;26506;-67
2021/06/26 11:37:44;;;;;;;3.60;3.30;;;;;;;33.40;33.96;100368.69;1746812;78;26025;-72
2021/06/26 11:40:21;;;;;;;3.90;3.20;;;;;;;32.89;34.48;100371.36;1771737;78;26667;-72
2021/06/26 11:42:59;;;;;;;3.40;3.10;;;;;;;32.28;34.96;100379.30;1778782;78;25942;-70
2021/06/26 11:45:41;;;;;;;4.33;3.15;;;;;;;31.76;35.50;100374.57;1733841;81;27312;-72
2021/06/26 11:48:36;;;;;;;3.35;3.12;;;;;;;31.55;36.25;100372.69;1715815;81;25800;-71
2021/06/26 11:51:06;;;;;;;7.85;3.87;;;;;;;31.32;36.19;100375.23;1729616;81;25848;-64
2021/06/26 11:53:54;;;;;;;;;;;;;;;;;;;;;
2021/06/26 11:56:23;;;;;;;4.87;3.75;;;;;;;30.91;37.67;100369.95;1708217;82;25811;-65
2021/06/26 11:58:53;;;;;;;3.70;3.40;;;;;;;31.17;38.00;100362.97;1698021;81;27691;-64
2021/06/26 12:01:41;;;;;;;3.30;3.00;;;;;;;31.39;38.08;100361.01;1669950;83;26025;-65
2021/06/26 12:04:07;;;;;;;3.17;2.93;;;;;;;31.76;38.07;100353.59;1688295;82;25977;-70
2021/06/26 12:06:37;;;;;;;4.67;3.30;;;;;;;32.00;36.99;100354.69;1700540;81;26524;-70
2021/06/26 12:09:07;;;;;;;5.50;3.95;;;;;;;32.20;37.00;100348.80;1711214;81;25974;-69
2021/06/26 12:11:39;;;;;;;4.80;3.72;;;;;;;32.38;36.55;100344.52;1729046;80;27015;-72
2021/06/26 12:14:06;;;;;;;2.95;2.72;;;;;;;32.51;36.07;100341.02;1744705;80;26474;-71
2021/06/26 12:16:37;;;;;;;4.95;3.35;;;;;;;32.81;36.32;100351.88;1752679;80;26442;-74
2021/06/26 12:19:08;;;;;;;3.55;3.22;;;;;;;32.95;35.38;100338.70;1748882;80;25594;-72
2021/06/26 12:21:45;;;;;;;6.22;3.55;;;;;;;32.98;34.69;100334.19;1752693;80;25968;-69
2021/06/26 12:24:25;;;;;;;3.90;3.50;;;;;;;32.93;34.66;100327.97;1706587;81;27509;-67
2021/06/26 12:27:20;;;;;;;4.08;3.60;;;;;;;32.89;35.27;100325.91;1704892;81;26121;-68
2021/06/26 12:30:00;;;;;;;4.30;3.60;;;;;;;32.97;35.48;100325.02;1691506;81;26565;-67
2021/06/26 12:32:34;;;;;;;4.20;3.47;;;;;;;33.02;35.09;100318.03;1709222;81;26530;-65
2021/06/26 12:35:02;;;;;;;4.25;3.47;;;;;;;32.94;35.34;100327.33;1740574;80;26339;-70
2021/06/26 12:37:35;;;;;;;4.15;3.72;;;;;;;32.92;35.03;100320.02;1749129;80;27334;-68
2021/06/26 12:40:28;;;;;;;4.15;3.75;;;;;;;32.82;34.42;100319.22;1717338;80;26756;-68
2021/06/26 12:43:12;;;;;;;9.53;6.47;;;;;;;32.50;34.36;100321.87;1640815;85;25916;-68
2021/06/26 12:45:49;;;;;;;6.83;4.50;;;;;;;31.93;34.94;100319.23;1646999;84;25934;-67
2021/06/26 12:48:29;;;;;;;8.25;4.58;;;;;;;31.46;35.27;100315.27;1613952;86;25743;-67
2021/06/26 12:51:05;;;;;;;5.53;4.05;;;;;;;31.07;35.66;100316.00;1658708;84;27314;-68
2021/06/26 12:53:45;;;;;;;5.92;4.17;;;;;;;30.70;36.22;100321.95;1646773;85;25818;-68
2021/06/26 12:56:22;;;;;;;7.90;5.80;;;;;;;30.35;36.42;100314.84;1620024;86;26669;-67
2021/06/26 12:59:05;;;;;;;6.87;5.87;;;;;;;30.06;37.05;100316.29;1644531;86;26442;-67
2021/06/26 13:01:53;;;;;;;5.45;4.78;;;;;;;29.85;37.37;100310.73;1643052;85;25998;-66
2021/06/26 13:04:25;;;;;;;5.67;4.37;;;;;;;29.65;37.84;100317.81;1620167;86;27951;-66
2021/06/26 13:06:57;;;;;;;6.00;5.33;;;;;;;29.45;38.52;100313.00;1613229;86;25567;-68
2021/06/26 13:09:40;;;;;;;4.80;4.30;;;;;;;29.32;38.77;100316.51;1619799;86;25761;-66
2021/06/26 13:12:23;;;;;;;5.60;4.58;;;;;;;29.18;38.92;100312.06;1610318;86;26099;-69
2021/06/26 13:15:05;;;;;;;7.40;4.55;;;;;;;29.08;39.25;100309.53;1573691;86;25936;-67
2021/06/26 13:17:32;;;;;;;6.33;4.45;;;;;;;28.99;39.53;100302.57;1618768;86;27332;-69
2021/06/26 13:20:00;;;;;;;6.70;4.35;;;;;;;28.93;39.84;100308.50;1626051;86;26215;-66
2021/06/26 13:22:27;;;;;;;6.37;4.78;;;;;;;28.85;40.36;100305.72;1651927;84;25907;-67
2021/06/26 13:24:53;;;;;;;5.50;4.95;;;;;;;28.78;40.30;100308.06;1642162;85;27109;-67
2021/06/26 13:27:21;;;;;;;7.08;5.12;;;;;;;28.65;40.51;100310.73;1625092;86;25932;-67
2021/06/26 13:29:48;;;;;;;7.22;5.33;;;;;;;28.57;40.92;100309.36;1620881;86;27640;-66
2021/06/26 13:32:15;;;;;;;7.37;4.67;;;;;;;28.49;41.14;100312.09;1618126;87;25951;-65
2021/06/26 13:34:47;;;;;;;5.30;4.80;;;;;;;28.43;41.33;100317.36;1649611;84;26167;-64
2021/06/26 13:37:10;;;;;;;7.87;5.65;;;;;;;28.35;41.41;100312.39;1637751;84;26184;-65
2021/06/26 13:39:36;;;;;;;5.22;4.78;;;;;;;28.23;41.73;100310.47;1656405;84;25888;-67
2021/06/26 13:42:04;;;;;;;6.47;4.83;;;;;;;28.12;41.42;100316.86;1656520;84;27401;-67
2021/06/26 13:44:31;;;;;;;8.60;5.03;;;;;;;28.02;41.48;100310.30;1657855;84;25841;-67
2021/06/26 13:46:58;;;;;;;7.05;4.70;;;;;;;27.90;41.25;100302.58;1651284;84;25849;-67
2021/06/26 13:49:24;;;;;;;4.37;4.00;;;;;;;27.81;41.41;100318.44;1651894;84;27785;-66
2021/06/26 13:51:51;;;;;;;7.28;4.20;;;;;;;27.69;41.58;100319.09;1637145;85;26685;-67
2021/06/26 13:54:17;;;;;;;6.28;4.58;;;;;;;27.59;41.33;100318.06;1648618;84;27373;-67
2021/06/26 13:56:44;;;;;;;8.55;4.72;;;;;;;27.45;41.56;100326.06;1638308;85;26625;-69
2021/06/26 13:59:10;;;;;;;10.75;8.83;;;;;;;27.34;41.58;100321.29;1618453;86;26556;-70
2021/06/26 14:01:37;;;;;;;13.70;10.78;;;;;;;27.24;41.77;100323.62;1638924;86;26302;-69
2021/06/26 14:04:04;;;;;;;5.87;4.25;;;;;;;27.13;41.93;100311.32;1643548;84;25830;-65
2021/06/26 14:06:30;;;;;;;5.70;4.37;;;;;;;27.05;42.16;100309.86;1611105;85;29555;-66
2021/06/26 14:08:58;;;;;;;5.15;3.90;;;;;;;26.97;42.50;100309.98;1648156;84;25812;-67
2021/06/26 14:11:25;;;;;;;5.22;3.95;;;;;;;26.91;42.50;100308.11;1650096;84;25883;-66
2021/06/26 14:13:52;;;;;;;4.03;3.65;;;;;;;26.86;42.63;100310.75;1642768;85;26355;-66
2021/06/26 14:16:20;;;;;;;5.53;4.28;;;;;;;26.80;42.64;100304.91;1638172;85;25929;-65
2021/06/26 14:18:46;;;;;;;4.55;4.15;;;;;;;26.77;42.70;100300.19;1654778;84;27371;-65
2021/06/26 14:21:13;;;;;;;6.45;3.90;;;;;;;26.75;42.72;100300.41;1644234;84;26556;-65
2021/06/26 14:23:40;;;;;;;9.15;5.90;;;;;;;26.71;43.07;100296.31;1644380;84;25927;-66
2021/06/26 14:26:07;;;;;;;4.37;3.95;;;;;;;26.65;43.14;100295.23;1625742;85;26204;-64
2021/06/26 14:28:35;;;;;;;6.00;4.05;;;;;;;26.62;43.17;100296.84;1631091;85;25910;-64
2021/06/26 14:31:03;;;;;;;4.53;4.00;;;;;;;26.61;43.33;100294.45;1653114;85;27386;-64
2021/06/26 14:33:30;;;;;;;6.42;4.72;;;;;;;26.57;43.54;100286.80;1647502;84;26536;-64
2021/06/26 14:35:56;;;;;;;8.70;5.50;;;;;;;26.58;43.69;100291.13;1578929;88;26787;-64
2021/06/26 14:38:23;;;;;;;20.60;15.78;;;;;;;26.54;43.63;100287.63;1603752;87;26829;-64
2021/06/26 14:40:49;;;;;;;6.60;4.92;;;;;;;26.51;43.71;100282.34;1641415;84;25872;-64
2021/06/26 14:43:16;;;;;;;4.45;4.03;;;;;;;26.50;44.06;100282.14;1657028;84;27298;-64
2021/06/26 14:45:43;;;;;;;5.08;3.85;;;;;;;26.56;44.13;100281.86;1647965;84;26036;-64
2021/06/26 14:48:09;;;;;;;4.60;3.77;;;;;;;26.59;44.12;100285.77;1638217;85;25950;-64
2021/06/26 14:50:36;;;;;;;5.45;4.17;;;;;;;26.63;44.24;100283.17;1611279;85;25935;-64
2021/06/26 14:53:03;;;;;;;5.30;4.20;;;;;;;26.69;44.25;100286.23;1601113;86;25745;-64
2021/06/26 14:55:30;;;;;;;10.10;7.10;;;;;;;26.73;44.21;100283.41;1592059;87;28456;-63
2021/06/26 14:57:56;;;;;;;7.53;4.33;;;;;;;26.76;44.09;100282.58;1595833;87;26005;-63
2021/06/26 15:00:23;;;;;;;4.10;3.70;;;;;;;26.78;44.10;100276.00;1618364;86;25893;-63
2021/06/26 15:02:50;;;;;;;4.08;3.67;;;;;;;26.79;43.96;100278.96;1585818;87;26827;-65
2021/06/26 15:05:17;;;;;;;5.12;3.42;;;;;;;26.77;43.94;100276.61;1649949;84;25930;-65
2021/06/26 15:07:44;;;;;;;5.85;3.50;;;;;;;26.77;43.80;100274.44;1629108;85;27397;-64
2021/06/26 15:10:12;;;;;;;4.37;3.60;;;;;;;26.78;43.79;100273.22;1632502;85;25821;-64
2021/06/26 15:12:39;;;;;;;3.72;3.42;;;;;;;26.80;43.67;100268.84;1597154;87;25826;-63
2021/06/26 15:15:08;;;;;;;4.90;3.60;;;;;;;26.82;43.58;100267.80;1614397;85;25877;-63
2021/06/26 15:17:35;;;;;;;4.20;3.60;;;;;;;26.88;43.67;100268.10;1631508;85;25947;-63
2021/06/26 15:20:05;;;;;;;5.78;3.02;;;;;;;26.97;43.80;100261.42;1627255;85;27430;-63
2021/06/26 15:22:33;;;;;;;4.05;3.20;;;;;;;27.07;43.58;100262.42;1591518;87;26032;-64
2021/06/26 15:25:00;;;;;;;5.50;3.40;;;;;;;27.16;43.57;100261.29;1619866;85;26564;-63
2021/06/26 15:27:26;;;;;;;3.92;3.62;;;;;;;27.27;43.46;100267.25;1621103;86;26640;-63
2021/06/26 15:29:53;;;;;;;3.55;3.25;;;;;;;27.35;43.42;100272.89;1613690;86;25505;-63
2021/06/26 15:32:19;;;;;;;5.53;4.47;;;;;;;27.42;43.20;100269.20;1619872;86;27366;-63
2021/06/26 15:34:45;;;;;;;5.20;3.80;;;;;;;27.44;42.85;100271.72;1630842;85;25867;-63
2021/06/26 15:37:16;;;;;;;8.53;4.17;;;;;;;27.43;42.99;100266.58;1633697;85;27143;-63
2021/06/26 15:39:41;;;;;;;4.53;3.75;;;;;;;27.42;43.00;100261.64;1642205;85;26700;-64
2021/06/26 15:42:08;;;;;;;4.40;3.83;;;;;;;27.42;42.71;100258.86;1645492;85;25976;-62
2021/06/26 15:44:34;;;;;;;4.17;3.80;;;;;;;27.43;42.83;100261.83;1642443;85;27392;-69
2021/06/26 15:47:02;;;;;;;5.15;3.90;;;;;;;27.46;43.08;100254.63;1652991;84;26653;-68
2021/06/26 15:49:28;;;;;;;4.37;3.98;;;;;;;27.48;42.57;100250.23;1622517;86;25911;-69
2021/06/26 15:51:55;;;;;;;3.98;3.65;;;;;;;27.46;42.57;100245.69;1589025;86;26779;-69
2021/06/26 15:54:22;;;;;;;4.15;3.58;;;;;;;27.45;42.44;100245.52;1623713;86;25956;-69
2021/06/26 15:56:48;;;;;;;3.98;3.22;;;;;;;27.44;41.90;100248.72;1643800;84;27271;-69
2021/06/26 15:59:15;;;;;;;7.37;3.80;;;;;;;27.40;41.84;100241.85;1633328;85;26410;-68
2021/06/26 16:01:42;;;;;;;4.10;3.27;;;;;;;27.34;41.51;100243.54;1653309;84;25858;-69
2021/06/26 16:04:08;;;;;;;4.58;3.87;;;;;;;27.29;41.61;100248.20;1648937;84;25942;-69
2021/06/26 16:06:35;;;;;;;3.72;3.42;;;;;;;27.23;41.87;100242.33;1643417;84;25936;-69
2021/06/26 16:09:02;;;;;;;4.10;3.80;;;;;;;27.23;42.03;100245.72;1646645;84;27765;-70
2021/06/26 16:11:30;;;;;;;3.85;3.55;;;;;;;27.22;41.92;100242.14;1641682;84;25832;-68
2021/06/26 16:13:57;;;;;;;9.08;4.03;;;;;;;27.19;42.00;100245.18;1646716;85;26263;-71
2021/06/26 16:16:23;;;;;;;4.15;3.40;;;;;;;27.14;41.82;100241.50;1643652;84;26504;-74
2021/06/26 16:18:50;;;;;;;4.00;3.60;;;;;;;27.11;41.72;100246.51;1639990;84;25879;-73
2021/06/26 16:21:17;;;;;;;5.10;3.37;;;;;;;27.07;41.57;100244.38;1632861;85;27409;-70
2021/06/26 16:23:44;;;;;;;4.75;3.65;;;;;;;27.01;41.74;100242.70;1658783;84;25795;-77
2021/06/26 16:26:10;;;;;;;4.75;3.90;;;;;;;26.98;41.79;100244.16;1638413;85;25990;-70
2021/06/26 16:28:37;;;;;;;3.92;3.52;;;;;;;26.91;41.68;100238.73;1653657;84;25838;-74
2021/06/26 16:31:04;;;;;;;4.35;3.95;;;;;;;26.86;41.68;100235.84;1618334;86;26726;-70
2021/06/26 16:33:31;;;;;;;5.10;3.52;;;;;;;26.81;41.96;100228.00;1643482;84;27321;-71
2021/06/26 16:36:03;;;;;;;5.28;3.77;;;;;;;26.77;42.13;100226.67;1647513;84;26004;-72
2021/06/26 16:38:39;;;;;;;6.45;4.20;;;;;;;26.74;41.97;100234.44;1635795;85;25919;-71
2021/06/26 16:41:03;;;;;;;6.62;4.72;;;;;;;26.69;42.04;100237.70;1641337;85;25932;-69
2021/06/26 16:43:32;;;;;;;6.33;3.85;;;;;;;26.66;42.17;100237.15;1608383;87;25980;-74
2021/06/26 16:46:03;;;;;;;6.33;4.30;;;;;;;26.62;42.17;100237.20;1640122;84;27316;-69
2021/06/26 16:48:31;;;;;;;5.22;4.05;;;;;;;26.58;42.10;100237.05;1629780;85;25865;-74
2021/06/26 16:50:59;;;;;;;6.85;4.05;;;;;;;26.53;42.24;100233.36;1615326;86;26713;-73
2021/06/26 16:53:26;;;;;;;4.78;4.28;;;;;;;26.47;42.34;100231.06;1616064;86;25990;-76
2021/06/26 16:55:56;;;;;;;6.33;3.98;;;;;;;26.41;42.38;100229.98;1606710;86;25866;-75